sensor_id;sensor_type;location;lat;lon;timestamp;pressure;altitude;pressure_sealevel;temperature
74043;BMP280;62384;53.600;10.040;2023-07-13T00:01:29;28787.69;;;17.61
74043;BMP280;62384;53.600;10.040;2023-07-13T00:03:55;27629.84;;;17.65
74043;BMP280;62384;53.600;10.040;2023-07-13T00:06:21;27630.19;;;17.66
74043;BMP280;62384;53.600;10.040;2023-07-13T00:08:46;28440.25;;;17.59
74043;BMP280;62384;53.600;10.040;2023-07-13T00:11:13;25598.47;;;17.65
74043;BMP280;62384;53.600;10.040;2023-07-13T00:13:39;25261.53;;;17.70
74043;BMP280;62384;53.600;10.040;2023-07-13T00:16:05;29257.38;;;17.64
74043;BMP280;62384;53.600;10.040;2023-07-13T00:18:30;26614.06;;;17.65
74043;BMP280;62384;53.600;10.040;2023-07-13T00:20:56;29231.16;;;17.57
74043;BMP280;62384;53.600;10.040;2023-07-13T00:23:30;28462.63;;;17.62
74043;BMP280;62384;53.600;10.040;2023-07-13T00:25:56;31527.63;;;17.58
74043;BMP280;62384;53.600;10.040;2023-07-13T00:28:22;33689.06;;;17.48
74043;BMP280;62384;53.600;10.040;2023-07-13T00:30:47;31741.88;;;17.44
74043;BMP280;62384;53.600;10.040;2023-07-13T00:33:13;34348.13;;;17.34
74043;BMP280;62384;53.600;10.040;2023-07-13T00:35:38;32356.28;;;17.37
74043;BMP280;62384;53.600;10.040;2023-07-13T00:38:04;31312.56;;;17.37
74043;BMP280;62384;53.600;10.040;2023-07-13T00:40:29;34474.38;;;17.20
74043;BMP280;62384;53.600;10.040;2023-07-13T00:42:58;32324.00;;;17.23
74043;BMP280;62384;53.600;10.040;2023-07-13T00:47:48;35756.44;;;17.23
74043;BMP280;62384;53.600;10.040;2023-07-13T00:50:16;35189.28;;;17.29
74043;BMP280;62384;53.600;10.040;2023-07-13T00:52:45;32848.94;;;17.24
74043;BMP280;62384;53.600;10.040;2023-07-13T00:55:12;35718.81;;;17.44
74043;BMP280;62384;53.600;10.040;2023-07-13T00:57:38;39635.59;;;17.26
74043;BMP280;62384;53.600;10.040;2023-07-13T01:00:06;37555.44;;;17.23
74043;BMP280;62384;53.600;10.040;2023-07-13T01:02:35;36603.34;;;17.30
74043;BMP280;62384;53.600;10.040;2023-07-13T01:05:09;36813.59;;;17.15
74043;BMP280;62384;53.600;10.040;2023-07-13T01:07:35;36255.09;;;17.23
74043;BMP280;62384;53.600;10.040;2023-07-13T01:10:02;33545.28;;;17.41
74043;BMP280;62384;53.600;10.040;2023-07-13T01:12:27;35559.25;;;17.38
74043;BMP280;62384;53.600;10.040;2023-07-13T01:15:00;34521.06;;;17.29
74043;BMP280;62384;53.600;10.040;2023-07-13T01:17:27;31825.22;;;17.40
74043;BMP280;62384;53.600;10.040;2023-07-13T01:19:52;33152.06;;;17.45
74043;BMP280;62384;53.600;10.040;2023-07-13T01:22:19;39034.56;;;17.29
74043;BMP280;62384;53.600;10.040;2023-07-13T01:24:46;34563.09;;;17.34
74043;BMP280;62384;53.600;10.040;2023-07-13T01:27:14;33946.47;;;17.37
74043;BMP280;62384;53.600;10.040;2023-07-13T01:29:41;33409.28;;;17.33
74043;BMP280;62384;53.600;10.040;2023-07-13T01:32:12;32471.97;;;17.28
74043;BMP280;62384;53.600;10.040;2023-07-13T01:34:38;34681.00;;;17.25
74043;BMP280;62384;53.600;10.040;2023-07-13T01:37:08;33402.94;;;17.24
74043;BMP280;62384;53.600;10.040;2023-07-13T01:39:33;34612.38;;;17.14
74043;BMP280;62384;53.600;10.040;2023-07-13T01:41:58;36930.00;;;17.03
74043;BMP280;62384;53.600;10.040;2023-07-13T01:44:24;32906.59;;;17.10
74043;BMP280;62384;53.600;10.040;2023-07-13T01:46:49;33882.22;;;17.05
74043;BMP280;62384;53.600;10.040;2023-07-13T01:49:15;33323.25;;;16.99
74043;BMP280;62384;53.600;10.040;2023-07-13T01:51:40;29533.16;;;17.15
74043;BMP280;62384;53.600;10.040;2023-07-13T01:54:05;30529.66;;;17.12
74043;BMP280;62384;53.600;10.040;2023-07-13T01:56:30;30407.16;;;17.10
74043;BMP280;62384;53.600;10.040;2023-07-13T01:58:56;31279.69;;;17.00
74043;BMP280;62384;53.600;10.040;2023-07-13T02:01:22;31242.78;;;17.08
74043;BMP280;62384;53.600;10.040;2023-07-13T02:03:47;30805.44;;;17.06
74043;BMP280;62384;53.600;10.040;2023-07-13T02:06:12;31836.63;;;17.03
74043;BMP280;62384;53.600;10.040;2023-07-13T02:08:38;32298.53;;;16.99
74043;BMP280;62384;53.600;10.040;2023-07-13T02:11:03;27351.75;;;17.00
74043;BMP280;62384;53.600;10.040;2023-07-13T02:13:29;27269.66;;;17.00
74043;BMP280;62384;53.600;10.040;2023-07-13T02:15:54;26934.31;;;17.09
74043;BMP280;62384;53.600;10.040;2023-07-13T02:18:19;30553.16;;;16.97
74043;BMP280;62384;53.600;10.040;2023-07-13T02:20:45;27335.38;;;16.99
74043;BMP280;62384;53.600;10.040;2023-07-13T02:23:10;24231.72;;;17.19
74043;BMP280;62384;53.600;10.040;2023-07-13T02:25:36;28295.50;;;17.08
74043;BMP280;62384;53.600;10.040;2023-07-13T02:28:01;26934.31;;;17.09
74043;BMP280;62384;53.600;10.040;2023-07-13T02:30:27;31307.81;;;16.98
74043;BMP280;62384;53.600;10.040;2023-07-13T02:32:57;32069.38;;;16.89
74043;BMP280;62384;53.600;10.040;2023-07-13T02:35:22;27432.00;;;16.95
74043;BMP280;62384;53.600;10.040;2023-07-13T02:37:48;31791.22;;;16.89
74043;BMP280;62384;53.600;10.040;2023-07-13T02:40:13;27271.31;;;17.05
74043;BMP280;62384;53.600;10.040;2023-07-13T02:42:39;28430.03;;;16.99
74043;BMP280;62384;53.600;10.040;2023-07-13T02:45:05;27274.66;;;17.15
74043;BMP280;62384;53.600;10.040;2023-07-13T02:47:32;30060.09;;;17.09
74043;BMP280;62384;53.600;10.040;2023-07-13T02:49:57;29455.38;;;17.05
74043;BMP280;62384;53.600;10.040;2023-07-13T02:52:23;28421.94;;;17.07
74043;BMP280;62384;53.600;10.040;2023-07-13T02:54:48;32125.16;;;16.90
74043;BMP280;62384;53.600;10.040;2023-07-13T02:57:13;33974.94;;;16.81
74043;BMP280;62384;53.600;10.040;2023-07-13T02:59:38;36679.28;;;16.67
74043;BMP280;62384;53.600;10.040;2023-07-13T03:02:04;30532.06;;;16.83
74043;BMP280;62384;53.600;10.040;2023-07-13T03:04:29;26589.38;;;16.88
74043;BMP280;62384;53.600;10.040;2023-07-13T03:06:55;28736.91;;;16.92
74043;BMP280;62384;53.600;10.040;2023-07-13T03:09:23;29146.25;;;16.91
74043;BMP280;62384;53.600;10.040;2023-07-13T03:11:48;36031.59;;;16.76
74043;BMP280;62384;53.600;10.040;2023-07-13T03:14:14;34975.72;;;16.85
74043;BMP280;62384;53.600;10.040;2023-07-13T03:16:40;37897.66;;;16.86
74043;BMP280;62384;53.600;10.040;2023-07-13T03:19:05;32384.88;;;16.97
74043;BMP280;62384;53.600;10.040;2023-07-13T03:21:30;33867.66;;;16.96
74043;BMP280;62384;53.600;10.040;2023-07-13T03:23:56;33056.16;;;17.00
74043;BMP280;62384;53.600;10.040;2023-07-13T03:26:21;35145.31;;;16.97
74043;BMP280;62384;53.600;10.040;2023-07-13T03:28:47;36934.50;;;16.96
74043;BMP280;62384;53.600;10.040;2023-07-13T03:31:18;38488.75;;;16.85
74043;BMP280;62384;53.600;10.040;2023-07-13T03:33:45;40202.88;;;16.79
74043;BMP280;62384;53.600;10.040;2023-07-13T03:36:17;37169.19;;;16.82
74043;BMP280;62384;53.600;10.040;2023-07-13T03:38:51;36944.03;;;16.83
74043;BMP280;62384;53.600;10.040;2023-07-13T03:41:17;38914.63;;;16.82
74043;BMP280;62384;53.600;10.040;2023-07-13T03:43:42;37059.97;;;16.81
74043;BMP280;62384;53.600;10.040;2023-07-13T03:46:08;45481.50;;;16.61
74043;BMP280;62384;53.600;10.040;2023-07-13T03:48:33;43924.09;;;16.57
74043;BMP280;62384;53.600;10.040;2023-07-13T03:50:59;45839.94;;;16.56
74043;BMP280;62384;53.600;10.040;2023-07-13T03:53:24;45012.34;;;16.59
74043;BMP280;62384;53.600;10.040;2023-07-13T03:55:49;43443.59;;;16.71
74043;BMP280;62384;53.600;10.040;2023-07-13T03:58:35;44742.03;;;16.77
74043;BMP280;62384;53.600;10.040;2023-07-13T04:01:02;47563.47;;;16.76
74043;BMP280;62384;53.600;10.040;2023-07-13T04:03:28;47875.56;;;16.81
74043;BMP280;62384;53.600;10.040;2023-07-13T04:05:55;45916.72;;;16.80
74043;BMP280;62384;53.600;10.040;2023-07-13T04:08:25;47265.41;;;16.72
74043;BMP280;62384;53.600;10.040;2023-07-13T04:10:50;45326.25;;;16.80
74043;BMP280;62384;53.600;10.040;2023-07-13T04:13:15;45234.41;;;16.82
74043;BMP280;62384;53.600;10.040;2023-07-13T04:15:41;54104.97;;;16.79
74043;BMP280;62384;53.600;10.040;2023-07-13T04:18:06;55976.50;;;16.80
74043;BMP280;62384;53.600;10.040;2023-07-13T04:20:32;55151.50;;;16.87
74043;BMP280;62384;53.600;10.040;2023-07-13T04:22:57;56790.03;;;16.79
74043;BMP280;62384;53.600;10.040;2023-07-13T04:25:23;50849.06;;;16.97
74043;BMP280;62384;53.600;10.040;2023-07-13T04:27:49;51583.84;;;16.92
74043;BMP280;62384;53.600;10.040;2023-07-13T04:30:14;58704.22;;;16.84
74043;BMP280;62384;53.600;10.040;2023-07-13T04:32:40;59177.16;;;16.87
74043;BMP280;62384;53.600;10.040;2023-07-13T04:35:05;59070.13;;;16.90
74043;BMP280;62384;53.600;10.040;2023-07-13T04:37:31;56821.81;;;16.95
74043;BMP280;62384;53.600;10.040;2023-07-13T04:39:56;52948.69;;;17.02
74043;BMP280;62384;53.600;10.040;2023-07-13T04:42:22;56437.75;;;16.99
74043;BMP280;62384;53.600;10.040;2023-07-13T04:44:51;59513.72;;;16.96
74043;BMP280;62384;53.600;10.040;2023-07-13T04:47:17;59997.72;;;16.93
74043;BMP280;62384;53.600;10.040;2023-07-13T04:49:44;60927.13;;;16.92
74043;BMP280;62384;53.600;10.040;2023-07-13T04:52:09;59699.91;;;16.98
74043;BMP280;62384;53.600;10.040;2023-07-13T04:54:34;61648.59;;;17.06
74043;BMP280;62384;53.600;10.040;2023-07-13T04:57:00;61903.72;;;17.10
74043;BMP280;62384;53.600;10.040;2023-07-13T04:59:26;62420.81;;;17.11
74043;BMP280;62384;53.600;10.040;2023-07-13T05:01:51;61755.19;;;17.09
74043;BMP280;62384;53.600;10.040;2023-07-13T05:04:16;63074.75;;;17.02
74043;BMP280;62384;53.600;10.040;2023-07-13T05:06:42;63300.69;;;17.07
74043;BMP280;62384;53.600;10.040;2023-07-13T05:09:07;64549.53;;;17.13
74043;BMP280;62384;53.600;10.040;2023-07-13T05:11:33;65796.00;;;17.19
74043;BMP280;62384;53.600;10.040;2023-07-13T05:13:58;64824.09;;;17.29
74043;BMP280;62384;53.600;10.040;2023-07-13T05:16:23;64732.19;;;17.31
74043;BMP280;62384;53.600;10.040;2023-07-13T05:18:48;64353.31;;;17.38
74043;BMP280;62384;53.600;10.040;2023-07-13T05:21:14;65210.22;;;17.32
74043;BMP280;62384;53.600;10.040;2023-07-13T05:23:39;65904.00;;;17.42
74043;BMP280;62384;53.600;10.040;2023-07-13T05:26:06;65957.38;;;17.45
74043;BMP280;62384;53.600;10.040;2023-07-13T05:28:32;65992.19;;;17.50
74043;BMP280;62384;53.600;10.040;2023-07-13T05:30:57;65520.53;;;17.56
74043;BMP280;62384;53.600;10.040;2023-07-13T05:33:23;65164.47;;;17.74
74043;BMP280;62384;53.600;10.040;2023-07-13T05:35:49;65824.81;;;17.80
74043;BMP280;62384;53.600;10.040;2023-07-13T05:38:14;66309.78;;;17.82
74043;BMP280;62384;53.600;10.040;2023-07-13T05:40:42;65550.66;;;17.79
74043;BMP280;62384;53.600;10.040;2023-07-13T05:43:07;65062.22;;;17.76
74043;BMP280;62384;53.600;10.040;2023-07-13T05:45:33;65033.94;;;17.66
74043;BMP280;62384;53.600;10.040;2023-07-13T05:47:58;64185.78;;;17.68
74043;BMP280;62384;53.600;10.040;2023-07-13T05:50:23;64657.69;;;17.77
74043;BMP280;62384;53.600;10.040;2023-07-13T05:52:48;64886.16;;;17.69
74043;BMP280;62384;53.600;10.040;2023-07-13T05:55:14;65404.53;;;17.67
74043;BMP280;62384;53.600;10.040;2023-07-13T05:57:39;64896.19;;;17.57
74043;BMP280;62384;53.600;10.040;2023-07-13T06:00:05;64436.81;;;17.56
74043;BMP280;62384;53.600;10.040;2023-07-13T06:02:30;65206.44;;;17.50
74043;BMP280;62384;53.600;10.040;2023-07-13T06:04:56;64120.25;;;17.61
74043;BMP280;62384;53.600;10.040;2023-07-13T06:07:21;64929.31;;;17.49
74043;BMP280;62384;53.600;10.040;2023-07-13T06:09:46;64812.78;;;17.51
74043;BMP280;62384;53.600;10.040;2023-07-13T06:12:13;64049.63;;;17.60
74043;BMP280;62384;53.600;10.040;2023-07-13T06:14:38;64813.25;;;17.60
74043;BMP280;62384;53.600;10.040;2023-07-13T06:17:03;65708.75;;;17.57
74043;BMP280;62384;53.600;10.040;2023-07-13T06:19:29;64839.25;;;17.53
74043;BMP280;62384;53.600;10.040;2023-07-13T06:21:54;65563.19;;;17.59
74043;BMP280;62384;53.600;10.040;2023-07-13T06:24:19;65404.28;;;17.55
74043;BMP280;62384;53.600;10.040;2023-07-13T06:26:45;65139.13;;;17.61
74043;BMP280;62384;53.600;10.040;2023-07-13T06:29:10;65607.53;;;17.60
74043;BMP280;62384;53.600;10.040;2023-07-13T06:31:35;65707.47;;;17.64
74043;BMP280;62384;53.600;10.040;2023-07-13T06:34:00;66195.81;;;17.83
74043;BMP280;62384;53.600;10.040;2023-07-13T06:36:27;66158.50;;;17.81
74043;BMP280;62384;53.600;10.040;2023-07-13T06:38:53;66119.53;;;17.74
74043;BMP280;62384;53.600;10.040;2023-07-13T06:41:18;66291.28;;;17.74
74043;BMP280;62384;53.600;10.040;2023-07-13T06:43:44;66041.97;;;17.71
74043;BMP280;62384;53.600;10.040;2023-07-13T06:46:09;66915.84;;;17.76
74043;BMP280;62384;53.600;10.040;2023-07-13T06:48:35;67153.47;;;17.97
74043;BMP280;62384;53.600;10.040;2023-07-13T06:51:01;67662.78;;;18.01
74043;BMP280;62384;53.600;10.040;2023-07-13T06:53:27;68139.81;;;18.16
74043;BMP280;62384;53.600;10.040;2023-07-13T06:55:52;67855.88;;;17.98
74043;BMP280;62384;53.600;10.040;2023-07-13T06:58:18;67711.53;;;18.10
74043;BMP280;62384;53.600;10.040;2023-07-13T07:00:44;68103.22;;;18.39
74043;BMP280;62384;53.600;10.040;2023-07-13T07:03:09;67836.22;;;18.16
74043;BMP280;62384;53.600;10.040;2023-07-13T07:05:34;68772.03;;;18.22
74043;BMP280;62384;53.600;10.040;2023-07-13T07:08:00;68592.28;;;18.33
74043;BMP280;62384;53.600;10.040;2023-07-13T07:10:25;69168.13;;;18.34
74043;BMP280;62384;53.600;10.040;2023-07-13T07:12:50;69022.63;;;18.39
74043;BMP280;62384;53.600;10.040;2023-07-13T07:15:18;69317.91;;;18.38
74043;BMP280;62384;53.600;10.040;2023-07-13T07:17:43;69548.50;;;18.51
74043;BMP280;62384;53.600;10.040;2023-07-13T07:20:09;69352.34;;;18.38
74043;BMP280;62384;53.600;10.040;2023-07-13T07:22:35;69512.91;;;18.53
74043;BMP280;62384;53.600;10.040;2023-07-13T07:25:00;69919.22;;;18.50
74043;BMP280;62384;53.600;10.040;2023-07-13T07:27:25;69760.75;;;18.45
74043;BMP280;62384;53.600;10.040;2023-07-13T07:29:51;69716.31;;;18.52
74043;BMP280;62384;53.600;10.040;2023-07-13T07:32:16;69790.09;;;18.50
74043;BMP280;62384;53.600;10.040;2023-07-13T07:34:41;70032.97;;;18.69
74043;BMP280;62384;53.600;10.040;2023-07-13T07:37:06;70423.63;;;18.72
74043;BMP280;62384;53.600;10.040;2023-07-13T07:39:34;70496.03;;;18.80
74043;BMP280;62384;53.600;10.040;2023-07-13T07:41:59;70989.66;;;18.83
74043;BMP280;62384;53.600;10.040;2023-07-13T07:44:25;70726.59;;;18.76
74043;BMP280;62384;53.600;10.040;2023-07-13T07:46:52;70488.72;;;19.02
74043;BMP280;62384;53.600;10.040;2023-07-13T07:49:17;71048.31;;;19.04
74043;BMP280;62384;53.600;10.040;2023-07-13T07:51:42;71260.84;;;19.14
74043;BMP280;62384;53.600;10.040;2023-07-13T07:54:07;71338.66;;;19.26
74043;BMP280;62384;53.600;10.040;2023-07-13T07:56:33;72064.13;;;19.29
74043;BMP280;62384;53.600;10.040;2023-07-13T07:58:58;71820.16;;;19.18
74043;BMP280;62384;53.600;10.040;2023-07-13T08:01:24;71680.66;;;19.39
74043;BMP280;62384;53.600;10.040;2023-07-13T08:03:49;72189.63;;;19.38
74043;BMP280;62384;53.600;10.040;2023-07-13T08:06:14;72007.81;;;19.47
74043;BMP280;62384;53.600;10.040;2023-07-13T08:08:39;72521.66;;;19.59
74043;BMP280;62384;53.600;10.040;2023-07-13T08:11:06;72220.75;;;19.52
74043;BMP280;62384;53.600;10.040;2023-07-13T08:13:32;72443.00;;;19.46
74043;BMP280;62384;53.600;10.040;2023-07-13T08:15:57;72724.41;;;19.79
74043;BMP280;62384;53.600;10.040;2023-07-13T08:18:24;72438.34;;;19.85
74043;BMP280;62384;53.600;10.040;2023-07-13T08:20:49;72533.31;;;19.88
74043;BMP280;62384;53.600;10.040;2023-07-13T08:23:14;72807.53;;;19.74
74043;BMP280;62384;53.600;10.040;2023-07-13T08:25:41;72843.66;;;19.88
74043;BMP280;62384;53.600;10.040;2023-07-13T08:28:07;72753.41;;;20.09
74043;BMP280;62384;53.600;10.040;2023-07-13T08:30:32;72983.47;;;19.82
74043;BMP280;62384;53.600;10.040;2023-07-13T08:32:57;73219.97;;;20.16
74043;BMP280;62384;53.600;10.040;2023-07-13T08:35:22;73813.72;;;20.28
74043;BMP280;62384;53.600;10.040;2023-07-13T08:37:48;73588.88;;;20.20
74043;BMP280;62384;53.600;10.040;2023-07-13T08:40:13;73450.69;;;20.35
74043;BMP280;62384;53.600;10.040;2023-07-13T08:42:45;73857.75;;;20.54
74043;BMP280;62384;53.600;10.040;2023-07-13T08:45:25;74202.53;;;20.16
74043;BMP280;62384;53.600;10.040;2023-07-13T08:48:08;73858.78;;;20.03
74043;BMP280;62384;53.600;10.040;2023-07-13T08:50:42;74007.56;;;20.20
74043;BMP280;62384;53.600;10.040;2023-07-13T08:53:12;73722.19;;;20.06
74043;BMP280;62384;53.600;10.040;2023-07-13T08:55:38;74528.88;;;20.40
74043;BMP280;62384;53.600;10.040;2023-07-13T08:58:17;74656.00;;;20.67
74043;BMP280;62384;53.600;10.040;2023-07-13T09:03:24;75187.59;;;20.83
74043;BMP280;62384;53.600;10.040;2023-07-13T09:05:59;75274.94;;;20.57
74043;BMP280;62384;53.600;10.040;2023-07-13T09:11:05;75703.19;;;21.23
74043;BMP280;62384;53.600;10.040;2023-07-13T09:16:13;76093.63;;;21.36
74043;BMP280;62384;53.600;10.040;2023-07-13T09:18:43;76019.63;;;21.40
74043;BMP280;62384;53.600;10.040;2023-07-13T09:21:17;76649.41;;;21.77
74043;BMP280;62384;53.600;10.040;2023-07-13T09:23:43;76607.13;;;21.35
74043;BMP280;62384;53.600;10.040;2023-07-13T09:26:16;76462.38;;;21.22
74043;BMP280;62384;53.600;10.040;2023-07-13T09:28:45;76433.84;;;21.25
74043;BMP280;62384;53.600;10.040;2023-07-13T09:31:15;76766.94;;;21.95
74043;BMP280;62384;53.600;10.040;2023-07-13T09:33:41;76821.09;;;21.63
74043;BMP280;62384;53.600;10.040;2023-07-13T09:36:31;76611.19;;;21.19
74043;BMP280;62384;53.600;10.040;2023-07-13T09:39:08;76842.41;;;21.87
74043;BMP280;62384;53.600;10.040;2023-07-13T09:44:29;77478.22;;;22.85
74043;BMP280;62384;53.600;10.040;2023-07-13T09:46:58;77568.28;;;23.10
74043;BMP280;62384;53.600;10.040;2023-07-13T09:49:25;77670.41;;;22.92
74043;BMP280;62384;53.600;10.040;2023-07-13T09:51:58;77724.16;;;22.91
74043;BMP280;62384;53.600;10.040;2023-07-13T09:54:25;77639.75;;;22.30
74043;BMP280;62384;53.600;10.040;2023-07-13T09:56:55;77719.38;;;22.68
74043;BMP280;62384;53.600;10.040;2023-07-13T09:59:22;77504.56;;;21.78
74043;BMP280;62384;53.600;10.040;2023-07-13T10:01:49;77382.75;;;21.90
74043;BMP280;62384;53.600;10.040;2023-07-13T10:04:18;77396.75;;;21.71
74043;BMP280;62384;53.600;10.040;2023-07-13T10:06:44;77436.34;;;21.80
74043;BMP280;62384;53.600;10.040;2023-07-13T10:09:15;77677.41;;;22.41
74043;BMP280;62384;53.600;10.040;2023-07-13T10:11:40;77800.19;;;22.58
74043;BMP280;62384;53.600;10.040;2023-07-13T10:14:13;77747.59;;;22.60
74043;BMP280;62384;53.600;10.040;2023-07-13T10:16:40;77877.34;;;22.83
74043;BMP280;62384;53.600;10.040;2023-07-13T10:19:21;77788.41;;;22.53
74043;BMP280;62384;53.600;10.040;2023-07-13T10:21:58;77969.00;;;22.73
74043;BMP280;62384;53.600;10.040;2023-07-13T10:24:27;78303.59;;;24.62
74043;BMP280;62384;53.600;10.040;2023-07-13T10:26:58;78662.06;;;26.85
74043;BMP280;62384;53.600;10.040;2023-07-13T10:29:27;78432.13;;;25.64
74043;BMP280;62384;53.600;10.040;2023-07-13T10:31:52;78397.34;;;24.93
74043;BMP280;62384;53.600;10.040;2023-07-13T10:34:18;78316.56;;;25.08
74043;BMP280;62384;53.600;10.040;2023-07-13T10:36:46;78506.72;;;25.69
74043;BMP280;62384;53.600;10.040;2023-07-13T10:39:26;78464.91;;;25.80
74043;BMP280;62384;53.600;10.040;2023-07-13T10:41:58;78376.09;;;25.17
74043;BMP280;62384;53.600;10.040;2023-07-13T10:44:28;78301.81;;;24.13
74043;BMP280;62384;53.600;10.040;2023-07-13T10:46:59;78363.16;;;25.61
74043;BMP280;62384;53.600;10.040;2023-07-13T10:49:27;78423.91;;;24.83
74043;BMP280;62384;53.600;10.040;2023-07-13T10:51:53;78348.03;;;24.51
74043;BMP280;62384;53.600;10.040;2023-07-13T10:56:50;78659.25;;;26.75
74043;BMP280;62384;53.600;10.040;2023-07-13T10:59:18;78529.69;;;25.94
74043;BMP280;62384;53.600;10.040;2023-07-13T11:01:55;78602.59;;;26.38
74043;BMP280;62384;53.600;10.040;2023-07-13T11:04:22;78572.38;;;26.19
74043;BMP280;62384;53.600;10.040;2023-07-13T11:06:52;78594.66;;;26.50
74043;BMP280;62384;53.600;10.040;2023-07-13T11:09:40;78710.16;;;27.33
74043;BMP280;62384;53.600;10.040;2023-07-13T11:12:48;78682.72;;;27.83
74043;BMP280;62384;53.600;10.040;2023-07-13T11:20:20;78408.25;;;25.74
74043;BMP280;62384;53.600;10.040;2023-07-13T11:22:51;78202.47;;;24.33
74043;BMP280;62384;53.600;10.040;2023-07-13T11:27:50;78224.69;;;24.31
74043;BMP280;62384;53.600;10.040;2023-07-13T11:35:57;78161.75;;;24.02
74043;BMP280;62384;53.600;10.040;2023-07-13T11:38:32;78374.09;;;25.20
74043;BMP280;62384;53.600;10.040;2023-07-13T11:41:01;78498.16;;;25.88
74043;BMP280;62384;53.600;10.040;2023-07-13T11:43:28;78529.00;;;26.57
74043;BMP280;62384;53.600;10.040;2023-07-13T11:45:53;78513.47;;;26.36
74043;BMP280;62384;53.600;10.040;2023-07-13T11:48:26;78299.44;;;25.05
74043;BMP280;62384;53.600;10.040;2023-07-13T11:50:56;78316.56;;;25.08
74043;BMP280;62384;53.600;10.040;2023-07-13T11:53:23;78318.66;;;24.75
74043;BMP280;62384;53.600;10.040;2023-07-13T11:55:50;78394.81;;;25.53
74043;BMP280;62384;53.600;10.040;2023-07-13T11:58:21;78472.84;;;26.18
74043;BMP280;62384;53.600;10.040;2023-07-13T12:00:48;78329.31;;;25.36
74043;BMP280;62384;53.600;10.040;2023-07-13T12:03:20;78263.66;;;24.84
74043;BMP280;62384;53.600;10.040;2023-07-13T12:05:59;78119.13;;;23.84
74043;BMP280;62384;53.600;10.040;2023-07-13T12:08:26;78086.72;;;23.40
74043;BMP280;62384;53.600;10.040;2023-07-13T12:11:14;78074.06;;;23.38
74043;BMP280;62384;53.600;10.040;2023-07-13T12:13:39;78044.22;;;23.08
74043;BMP280;62384;53.600;10.040;2023-07-13T12:16:17;77972.00;;;22.61
74043;BMP280;62384;53.600;10.040;2023-07-13T12:18:45;77952.25;;;22.58
74043;BMP280;62384;53.600;10.040;2023-07-13T12:21:16;77358.78;;;21.45
74043;BMP280;62384;53.600;10.040;2023-07-13T12:23:44;69643.88;;;19.42
74043;BMP280;62384;53.600;10.040;2023-07-13T12:26:11;63148.78;;;18.57
74043;BMP280;62384;53.600;10.040;2023-07-13T12:28:48;60396.22;;;17.95
74043;BMP280;62384;53.600;10.040;2023-07-13T12:31:39;53410.00;;;17.83
74043;BMP280;62384;53.600;10.040;2023-07-13T12:34:11;49531.53;;;17.61
74043;BMP280;62384;53.600;10.040;2023-07-13T12:36:40;53185.59;;;17.23
74043;BMP280;62384;53.600;10.040;2023-07-13T12:39:23;46069.47;;;17.28
74043;BMP280;62384;53.600;10.040;2023-07-13T12:41:52;39683.69;;;17.36
74043;BMP280;62384;53.600;10.040;2023-07-13T12:44:28;39606.16;;;17.45
74043;BMP280;62384;53.600;10.040;2023-07-13T12:46:57;41900.47;;;17.79
74043;BMP280;62384;53.600;10.040;2023-07-13T12:49:26;45279.97;;;18.28
74043;BMP280;62384;53.600;10.040;2023-07-13T12:52:01;50345.28;;;18.71
74043;BMP280;62384;53.600;10.040;2023-07-13T12:54:28;56210.66;;;19.03
74043;BMP280;62384;53.600;10.040;2023-07-13T12:56:54;55308.06;;;19.14
74043;BMP280;62384;53.600;10.040;2023-07-13T12:59:23;59735.41;;;19.15
74043;BMP280;62384;53.600;10.040;2023-07-13T13:01:49;59365.47;;;19.18
74043;BMP280;62384;53.600;10.040;2023-07-13T13:04:15;58030.03;;;19.19
74043;BMP280;62384;53.600;10.040;2023-07-13T13:06:40;54243.38;;;19.40
74043;BMP280;62384;53.600;10.040;2023-07-13T13:09:12;58380.28;;;19.14
74043;BMP280;62384;53.600;10.040;2023-07-13T13:11:38;56259.84;;;19.18
74043;BMP280;62384;53.600;10.040;2023-07-13T13:14:05;60657.50;;;18.73
74043;BMP280;62384;53.600;10.040;2023-07-13T13:16:44;61109.25;;;18.56
74043;BMP280;62384;53.600;10.040;2023-07-13T13:19:17;62023.03;;;18.49
74043;BMP280;62384;53.600;10.040;2023-07-13T13:21:44;62467.94;;;18.52
74043;BMP280;62384;53.600;10.040;2023-07-13T13:24:16;63960.97;;;18.61
74043;BMP280;62384;53.600;10.040;2023-07-13T13:26:43;62279.09;;;18.80
74043;BMP280;62384;53.600;10.040;2023-07-13T13:29:31;66507.88;;;18.84
74043;BMP280;62384;53.600;10.040;2023-07-13T13:31:56;63625.38;;;19.05
74043;BMP280;62384;53.600;10.040;2023-07-13T13:34:22;65651.22;;;19.19
74043;BMP280;62384;53.600;10.040;2023-07-13T13:36:52;66653.97;;;19.13
74043;BMP280;62384;53.600;10.040;2023-07-13T13:39:34;69090.59;;;18.98
74043;BMP280;62384;53.600;10.040;2023-07-13T13:42:00;65947.69;;;19.08
74043;BMP280;62384;53.600;10.040;2023-07-13T13:44:25;67484.06;;;19.20
74043;BMP280;62384;53.600;10.040;2023-07-13T13:46:52;67165.06;;;19.18
74043;BMP280;62384;53.600;10.040;2023-07-13T13:49:21;67310.91;;;19.24
74043;BMP280;62384;53.600;10.040;2023-07-13T13:51:48;69491.56;;;19.30
74043;BMP280;62384;53.600;10.040;2023-07-13T13:54:14;68390.28;;;19.30
74043;BMP280;62384;53.600;10.040;2023-07-13T13:56:42;69008.34;;;19.31
74043;BMP280;62384;53.600;10.040;2023-07-13T13:59:08;68169.88;;;19.46
74043;BMP280;62384;53.600;10.040;2023-07-13T14:01:34;70586.03;;;19.36
74043;BMP280;62384;53.600;10.040;2023-07-13T14:04:00;68724.28;;;19.35
74043;BMP280;62384;53.600;10.040;2023-07-13T14:06:25;70624.91;;;19.19
74043;BMP280;62384;53.600;10.040;2023-07-13T14:08:51;71244.28;;;19.29
74043;BMP280;62384;53.600;10.040;2023-07-13T14:11:18;71416.34;;;19.23
74043;BMP280;62384;53.600;10.040;2023-07-13T14:13:54;70311.69;;;19.49
74043;BMP280;62384;53.600;10.040;2023-07-13T14:16:21;71133.50;;;19.93
74043;BMP280;62384;53.600;10.040;2023-07-13T14:18:48;71804.16;;;19.92
74043;BMP280;62384;53.600;10.040;2023-07-13T14:21:16;72812.88;;;19.92
74043;BMP280;62384;53.600;10.040;2023-07-13T14:23:44;72679.06;;;19.83
74043;BMP280;62384;53.600;10.040;2023-07-13T14:26:15;72101.06;;;19.87
74043;BMP280;62384;53.600;10.040;2023-07-13T14:28:43;72341.34;;;19.74